createdAt,value
2023-02-28T00:00:36.325Z,3.60
2023-02-28T00:03:03.890Z,3.90
2023-02-28T00:05:30.761Z,3.90
2023-02-28T00:07:57.553Z,4.80
2023-02-28T00:10:26.916Z,4.20
2023-02-28T00:12:57.150Z,4.20
2023-02-28T00:15:24.463Z,3.60
2023-02-28T00:17:51.474Z,4.20
2023-02-28T00:20:18.276Z,3.70
2023-02-28T00:22:47.880Z,3.70
2023-02-28T00:25:17.484Z,3.50
2023-02-28T00:27:45.167Z,3.50
2023-02-28T00:30:14.299Z,3.70
2023-02-28T00:32:41.724Z,4.00
2023-02-28T00:35:09.017Z,3.90
2023-02-28T00:37:37.711Z,3.60
2023-02-28T00:40:06.746Z,3.90
2023-02-28T00:42:34.551Z,3.70
2023-02-28T00:45:01.784Z,4.10
2023-02-28T00:47:37.207Z,4.50
2023-02-28T00:50:04.848Z,4.20
2023-02-28T00:52:31.945Z,3.90
2023-02-28T00:54:58.900Z,4.10
2023-02-28T00:57:26.041Z,3.80
2023-02-28T00:59:54.663Z,4.60
2023-02-28T01:02:22.896Z,4.40
2023-02-28T01:04:51.498Z,4.40
2023-02-28T01:07:19.567Z,4.10
2023-02-28T01:09:46.996Z,4.10
2023-02-28T01:12:15.114Z,4.20
2023-02-28T01:14:42.412Z,4.20
2023-02-28T01:17:09.695Z,4.50
2023-02-28T01:19:36.366Z,4.50
2023-02-28T01:22:04.201Z,4.50
2023-02-28T01:24:34.935Z,4.50
2023-02-28T01:27:03.328Z,4.70
2023-02-28T01:29:30.456Z,4.90
2023-02-28T01:31:57.675Z,4.60
2023-02-28T01:34:24.489Z,4.20
2023-02-28T01:36:51.653Z,4.80
2023-02-28T01:39:20.015Z,4.30
2023-02-28T01:41:46.816Z,4.40
2023-02-28T01:44:51.587Z,4.40
2023-02-28T01:47:18.416Z,4.30
2023-02-28T01:49:45.064Z,4.20
2023-02-28T01:52:18.563Z,4.20
2023-02-28T01:54:55.682Z,4.10
2023-02-28T01:57:24.895Z,4.50
2023-02-28T02:00:00.216Z,5.00
2023-02-28T02:02:28.336Z,4.60
2023-02-28T02:04:56.070Z,4.80
2023-02-28T02:07:22.921Z,4.50
2023-02-28T02:09:51.083Z,4.30
2023-02-28T02:12:44.122Z,4.10
2023-02-28T02:15:20.447Z,3.80
2023-02-28T02:17:50.027Z,3.70
2023-02-28T02:20:32.991Z,3.10
2023-02-28T02:23:03.081Z,3.50
2023-02-28T02:25:34.916Z,3.60
2023-02-28T02:31:06.422Z,3.20
2023-02-28T02:33:45.615Z,3.20
2023-02-28T02:36:20.107Z,3.30
2023-02-28T02:38:51.042Z,3.30
2023-02-28T02:41:40.343Z,3.30
2023-02-28T02:44:22.655Z,3.30
2023-02-28T02:49:27.349Z,3.20
2023-02-28T02:51:55.922Z,4.20
2023-02-28T02:54:29.086Z,3.50
2023-02-28T02:57:00.109Z,4.70
2023-02-28T02:59:28.752Z,4.20
2023-02-28T03:02:02.277Z,4.20
2023-02-28T03:04:32.045Z,4.30
2023-02-28T03:06:59.878Z,3.90
2023-02-28T03:09:27.584Z,3.80
2023-02-28T03:11:56.172Z,3.80
2023-02-28T03:15:16.086Z,3.30
2023-02-28T03:17:55.593Z,3.90
2023-02-28T03:20:34.913Z,3.30
2023-02-28T03:23:04.009Z,3.40
2023-02-28T03:25:36.200Z,4.00
2023-02-28T03:28:33.408Z,3.60
2023-02-28T03:31:09.601Z,3.40
2023-02-28T03:33:46.596Z,3.80
2023-02-28T03:36:15.941Z,3.50
2023-02-28T03:38:46.645Z,3.10
2023-02-28T03:41:19.726Z,4.20
2023-02-28T03:43:56.318Z,4.10
2023-02-28T03:46:24.956Z,4.00
2023-02-28T03:48:53.029Z,4.50
2023-02-28T03:51:20.385Z,5.10
2023-02-28T03:54:02.956Z,4.80
2023-02-28T03:56:36.422Z,4.20
2023-02-28T03:59:07.569Z,3.80
2023-02-28T04:01:39.365Z,3.70
2023-02-28T04:04:06.090Z,3.50
2023-02-28T04:06:33.426Z,3.40
2023-02-28T04:09:00.671Z,3.70
2023-02-28T04:11:35.495Z,3.80
2023-02-28T04:14:03.722Z,4.00
2023-02-28T04:16:35.313Z,3.80
2023-02-28T04:19:05.355Z,3.80
2023-02-28T04:21:34.338Z,3.80
2023-02-28T04:24:06.497Z,4.20
2023-02-28T04:26:35.791Z,3.70
2023-02-28T04:29:04.128Z,3.90
2023-02-28T04:31:32.097Z,3.80
2023-02-28T04:33:59.292Z,3.50
2023-02-28T04:36:26.340Z,3.90
2023-02-28T04:38:55.123Z,4.30
2023-02-28T04:41:23.368Z,5.40
2023-02-28T04:43:52.456Z,5.40
2023-02-28T04:46:20.472Z,5.90
2023-02-28T04:48:47.263Z,5.70
2023-02-28T04:51:14.929Z,5.90
2023-02-28T04:53:44.158Z,6.10
2023-02-28T04:56:13.216Z,5.30
2023-02-28T04:58:40.102Z,4.40
2023-02-28T05:01:25.111Z,4.50
2023-02-28T05:03:52.484Z,5.20
2023-02-28T05:06:22.149Z,4.40
2023-02-28T05:08:49.085Z,4.90
2023-02-28T05:13:49.772Z,4.00
2023-02-28T05:16:16.813Z,4.80
2023-02-28T05:18:47.483Z,4.10
2023-02-28T05:21:26.489Z,4.50
2023-02-28T05:23:53.444Z,4.70
2023-02-28T05:26:20.254Z,4.30
2023-02-28T05:28:47.273Z,4.10
2023-02-28T05:31:14.964Z,4.30
2023-02-28T05:33:41.684Z,4.60
2023-02-28T05:36:08.727Z,4.70
2023-02-28T05:38:37.780Z,4.70
2023-02-28T05:41:09.389Z,4.80
2023-02-28T05:43:37.531Z,5.10
2023-02-28T05:46:06.150Z,5.00
2023-02-28T05:48:35.780Z,4.80
2023-02-28T05:51:03.086Z,5.10
2023-02-28T05:53:31.194Z,4.20
2023-02-28T05:55:57.917Z,4.60
2023-02-28T05:58:29.478Z,5.10
2023-02-28T06:00:57.544Z,5.20
2023-02-28T06:03:25.363Z,5.30
2023-02-28T06:05:52.279Z,5.30
2023-02-28T06:08:19.318Z,5.30
2023-02-28T06:10:46.411Z,5.70
2023-02-28T06:13:13.268Z,5.40
2023-02-28T06:15:40.046Z,5.20
2023-02-28T06:18:07.124Z,5.20
2023-02-28T06:20:35.033Z,4.60
2023-02-28T06:23:01.802Z,5.30
2023-02-28T06:25:29.339Z,4.80
2023-02-28T06:27:56.426Z,5.10
2023-02-28T06:30:25.778Z,4.30
2023-02-28T06:32:53.102Z,4.90
2023-02-28T06:35:20.499Z,4.50
2023-02-28T06:37:47.711Z,4.60
2023-02-28T06:40:14.992Z,5.30
2023-02-28T06:42:43.205Z,5.00
2023-02-28T06:45:11.089Z,4.80
2023-02-28T06:47:39.703Z,5.10
2023-02-28T06:50:07.611Z,5.10
2023-02-28T06:52:36.579Z,5.60
2023-02-28T06:55:07.242Z,5.20
2023-02-28T06:57:34.810Z,5.20
2023-02-28T07:00:03.524Z,5.10
2023-02-28T07:02:32.176Z,5.40
2023-02-28T07:04:59.107Z,5.30
2023-02-28T07:07:26.105Z,4.80
2023-02-28T07:09:52.967Z,5.10
2023-02-28T07:12:21.535Z,4.90
2023-02-28T07:14:49.017Z,5.50
2023-02-28T07:17:16.318Z,5.40
2023-02-28T07:19:44.256Z,4.60
2023-02-28T07:27:00.444Z,4.80
2023-02-28T07:29:27.322Z,5.00
2023-02-28T07:31:55.115Z,5.30
2023-02-28T07:34:22.460Z,4.70
2023-02-28T07:36:54.942Z,5.40
2023-02-28T07:39:22.233Z,5.00
2023-02-28T07:41:49.237Z,5.80
2023-02-28T07:44:16.354Z,5.40
2023-02-28T07:46:43.279Z,5.90
2023-02-28T07:49:10.130Z,5.60
2023-02-28T07:51:37.583Z,4.90
2023-02-28T07:54:05.435Z,5.20
2023-02-28T07:56:33.108Z,5.30
2023-02-28T07:59:00.046Z,4.90
2023-02-28T08:01:27.604Z,5.00
2023-02-28T08:08:45.466Z,4.80
2023-02-28T08:11:12.904Z,5.20
2023-02-28T08:13:39.635Z,4.50
2023-02-28T08:16:10.784Z,4.70
2023-02-28T08:18:38.340Z,4.30
2023-02-28T08:21:11.360Z,4.00
2023-02-28T08:23:40.843Z,5.10
2023-02-28T08:26:07.842Z,5.40
2023-02-28T08:28:34.664Z,5.20
2023-02-28T08:31:01.578Z,4.90
2023-02-28T08:33:28.688Z,5.20
2023-02-28T08:35:56.298Z,5.00
2023-02-28T08:38:23.769Z,4.90
2023-02-28T08:40:51.114Z,5.30
2023-02-28T08:43:18.365Z,5.30
2023-02-28T08:45:45.644Z,5.20
2023-02-28T08:48:13.923Z,6.00
2023-02-28T08:50:46.449Z,5.30
2023-02-28T08:53:15.939Z,5.60
2023-02-28T08:55:42.862Z,5.70
2023-02-28T08:58:10.759Z,5.90
2023-02-28T09:00:37.583Z,6.00
2023-02-28T09:03:06.167Z,5.80
2023-02-28T09:05:33.671Z,5.40
2023-02-28T09:08:06.717Z,5.40
2023-02-28T09:10:33.647Z,5.50
2023-02-28T09:13:00.468Z,5.30
2023-02-28T09:15:27.562Z,5.60
2023-02-28T09:17:54.549Z,5.50
2023-02-28T09:20:26.196Z,5.00
2023-02-28T09:22:53.201Z,5.30
2023-02-28T09:25:20.151Z,4.40
2023-02-28T09:27:47.412Z,5.00
2023-02-28T09:30:14.498Z,5.20
2023-02-28T09:32:41.589Z,5.40
2023-02-28T09:35:13.816Z,5.30
2023-02-28T09:37:40.982Z,5.00
2023-02-28T09:40:10.171Z,5.20
2023-02-28T09:42:37.045Z,5.30
2023-02-28T09:45:07.882Z,5.20
2023-02-28T09:47:45.726Z,5.40
2023-02-28T09:50:24.381Z,6.20
2023-02-28T09:52:51.410Z,5.60
2023-02-28T09:55:32.746Z,5.80
2023-02-28T09:58:02.233Z,5.60
2023-02-28T10:00:38.359Z,5.60
2023-02-28T10:03:27.283Z,5.00
2023-02-28T10:06:17.796Z,5.60
2023-02-28T10:09:15.643Z,5.70
2023-02-28T10:14:17.252Z,5.20
2023-02-28T10:16:54.342Z,5.70
2023-02-28T10:19:24.576Z,5.30
2023-02-28T10:21:59.645Z,5.20
2023-02-28T10:24:26.557Z,5.10
2023-02-28T10:27:06.579Z,5.30
2023-02-28T10:29:33.905Z,5.20
2023-02-28T10:32:01.741Z,5.40
2023-02-28T10:34:28.648Z,5.10
2023-02-28T10:36:55.639Z,5.40
2023-02-28T10:39:46.801Z,4.90
2023-02-28T10:42:19.638Z,6.10
2023-02-28T10:44:49.171Z,5.60
2023-02-28T10:47:19.368Z,5.10
2023-02-28T10:49:49.797Z,5.40
2023-02-28T10:52:39.664Z,4.60
2023-02-28T10:55:25.725Z,4.90
2023-02-28T10:57:52.941Z,5.70
2023-02-28T11:00:25.774Z,4.70
2023-02-28T11:02:52.715Z,5.00
2023-02-28T11:05:28.300Z,4.90
2023-02-28T11:07:57.790Z,5.50
2023-02-28T11:10:27.168Z,4.70
2023-02-28T11:12:58.196Z,4.70
2023-02-28T11:15:31.477Z,4.60
2023-02-28T11:18:13.439Z,4.70
2023-02-28T11:20:40.868Z,4.90
2023-02-28T11:23:12.509Z,4.90
2023-02-28T11:25:39.980Z,5.10
2023-02-28T11:28:36.236Z,4.70
2023-02-28T11:31:12.544Z,4.50
2023-02-28T11:33:47.843Z,5.30
2023-02-28T11:36:25.889Z,4.90
2023-02-28T11:39:08.847Z,5.00
2023-02-28T11:42:13.320Z,4.70
2023-02-28T11:44:55.504Z,4.60
2023-02-28T11:47:28.388Z,5.30
2023-02-28T11:49:55.333Z,5.20
2023-02-28T11:52:29.747Z,5.40
2023-02-28T11:55:08.935Z,5.10
2023-02-28T11:58:04.972Z,5.20
2023-02-28T12:00:45.433Z,5.50
2023-02-28T12:03:29.301Z,5.60
2023-02-28T12:06:10.295Z,5.80
2023-02-28T12:08:52.322Z,5.30
2023-02-28T12:11:41.045Z,5.80
2023-02-28T12:14:30.090Z,4.90
2023-02-28T12:17:01.751Z,5.50
2023-02-28T12:19:36.402Z,5.20
2023-02-28T12:22:11.717Z,5.30
2023-02-28T12:25:06.733Z,5.30
2023-02-28T12:31:44.589Z,4.60
2023-02-28T12:34:14.573Z,5.50
2023-02-28T12:36:42.169Z,5.00
2023-02-28T12:39:18.494Z,4.70
2023-02-28T12:41:47.534Z,5.20
2023-02-28T12:44:18.723Z,5.50
2023-02-28T12:46:50.419Z,5.20
2023-02-28T12:49:34.896Z,5.30
2023-02-28T12:52:02.707Z,5.00
2023-02-28T12:54:37.919Z,5.30
2023-02-28T12:57:17.906Z,5.20
2023-02-28T12:59:57.151Z,5.10
2023-02-28T13:03:02.017Z,5.00
2023-02-28T13:05:40.064Z,6.00
2023-02-28T13:08:44.847Z,5.80
2023-02-28T13:11:26.935Z,5.20
2023-02-28T13:14:07.234Z,6.30
2023-02-28T13:17:02.698Z,7.40
2023-02-28T13:19:31.770Z,7.40
2023-02-28T13:22:00.834Z,7.60
2023-02-28T13:24:43.386Z,10.90
2023-02-28T13:27:30.515Z,8.70
2023-02-28T13:30:00.539Z,8.50
2023-02-28T13:32:34.321Z,8.10
2023-02-28T13:35:39.743Z,6.70
2023-02-28T13:38:17.350Z,6.30
2023-02-28T13:40:46.785Z,6.30
2023-02-28T13:43:22.608Z,6.20
2023-02-28T13:46:12.690Z,6.20
2023-02-28T13:48:41.855Z,5.70
2023-02-28T13:52:27.715Z,6.20
2023-02-28T13:55:39.407Z,5.60
2023-02-28T13:59:19.453Z,5.90
2023-02-28T14:02:28.419Z,5.60
2023-02-28T14:05:01.219Z,5.70
2023-02-28T14:12:38.421Z,6.20
2023-02-28T14:15:46.958Z,5.90
2023-02-28T14:18:59.398Z,5.40
2023-02-28T14:29:49.319Z,5.80
2023-02-28T14:32:41.153Z,6.30
2023-02-28T14:35:26.672Z,5.80
2023-02-28T14:37:54.505Z,5.60
2023-02-28T14:40:24.430Z,6.40
2023-02-28T14:42:56.644Z,6.30
2023-02-28T14:45:23.405Z,6.50
2023-02-28T14:47:51.137Z,6.50
2023-02-28T14:50:25.156Z,7.40
2023-02-28T14:52:56.176Z,6.70
2023-02-28T14:55:30.841Z,7.40
2023-02-28T14:58:06.943Z,7.40
2023-02-28T15:00:35.245Z,7.20
2023-02-28T15:03:21.306Z,7.40
2023-02-28T15:05:55.636Z,6.50
2023-02-28T15:08:23.280Z,6.30
2023-02-28T15:11:05.122Z,6.60
2023-02-28T15:13:49.808Z,6.10
2023-02-28T15:16:18.954Z,6.40
2023-02-28T15:19:06.073Z,6.20
2023-02-28T15:21:38.581Z,6.80
2023-02-28T15:24:14.029Z,7.00
2023-02-28T15:26:46.567Z,6.60
2023-02-28T15:29:19.757Z,6.90
2023-02-28T15:32:03.519Z,7.10
2023-02-28T15:34:42.638Z,6.50
2023-02-28T15:37:27.024Z,7.50
2023-02-28T15:39:55.295Z,6.40
2023-02-28T15:42:23.424Z,7.40
2023-02-28T15:44:50.764Z,7.80
2023-02-28T15:47:26.747Z,8.60
2023-02-28T15:49:54.299Z,7.90
2023-02-28T15:52:35.345Z,7.70
2023-02-28T15:55:27.500Z,7.70
2023-02-28T15:57:55.767Z,7.40
2023-02-28T16:00:24.439Z,6.80
2023-02-28T16:02:51.311Z,7.40
2023-02-28T16:05:38.879Z,7.10
2023-02-28T16:08:14.922Z,7.70
2023-02-28T16:10:44.397Z,7.00
2023-02-28T16:13:12.934Z,7.50
2023-02-28T16:15:44.835Z,6.90
2023-02-28T16:18:12.448Z,7.60
2023-02-28T16:20:39.224Z,7.00
2023-02-28T16:23:05.949Z,7.80
2023-02-28T16:25:38.618Z,7.80
2023-02-28T16:28:18.929Z,7.70
2023-02-28T16:30:45.649Z,7.30
2023-02-28T16:33:13.422Z,7.60
2023-02-28T16:35:40.506Z,7.10
2023-02-28T16:38:07.575Z,6.00
2023-02-28T16:40:35.986Z,7.90
2023-02-28T16:43:06.802Z,6.90
2023-02-28T16:45:34.131Z,7.70
2023-02-28T16:48:01.099Z,7.60
2023-02-28T16:50:30.007Z,7.60
2023-02-28T16:52:56.847Z,7.20
2023-02-28T16:55:24.148Z,8.30
2023-02-28T16:57:55.816Z,7.60
2023-02-28T17:00:23.044Z,6.90
2023-02-28T17:02:49.926Z,8.00
2023-02-28T17:05:17.752Z,7.80
2023-02-28T17:07:44.977Z,8.10
2023-02-28T17:10:22.335Z,7.90
2023-02-28T17:12:49.647Z,7.70
2023-02-28T17:15:18.060Z,8.40
2023-02-28T17:17:45.298Z,7.40
2023-02-28T17:20:17.482Z,7.50
2023-02-28T17:22:44.184Z,7.40
2023-02-28T17:25:11.009Z,7.70
2023-02-28T17:27:38.352Z,8.60
2023-02-28T17:30:26.061Z,8.40
2023-02-28T17:32:55.832Z,7.90
2023-02-28T17:35:23.318Z,8.60
2023-02-28T17:37:51.250Z,8.90
2023-02-28T17:40:23.055Z,8.10
2023-02-28T17:42:52.564Z,5.20
2023-02-28T17:45:20.245Z,8.30
2023-02-28T17:47:49.114Z,8.50
2023-02-28T17:50:20.620Z,8.00
2023-02-28T17:52:47.428Z,7.90
2023-02-28T17:55:14.139Z,7.80
2023-02-28T17:57:42.233Z,7.70
2023-02-28T18:00:16.204Z,7.50
2023-02-28T18:02:44.171Z,7.10
2023-02-28T18:05:10.898Z,7.60
2023-02-28T18:07:38.709Z,7.30
2023-02-28T18:10:19.826Z,7.20
2023-02-28T18:12:49.239Z,8.50
2023-02-28T18:15:17.118Z,7.50
2023-02-28T18:17:46.496Z,8.00
2023-02-28T18:20:13.197Z,8.10
2023-02-28T18:22:40.659Z,8.60
2023-02-28T18:25:08.747Z,8.30
2023-02-28T18:27:36.009Z,8.60
2023-02-28T18:30:04.506Z,8.10
2023-02-28T18:32:31.660Z,8.20
2023-02-28T18:35:00.919Z,8.00
2023-02-28T18:37:27.838Z,7.40
2023-02-28T18:39:54.947Z,7.50
2023-02-28T18:42:22.864Z,8.00
2023-02-28T18:44:49.996Z,7.20
2023-02-28T18:47:18.010Z,8.60
2023-02-28T18:49:44.990Z,8.40
2023-02-28T18:52:15.717Z,8.00
2023-02-28T18:54:42.915Z,6.60
2023-02-28T18:57:09.568Z,8.00
2023-02-28T18:59:37.231Z,8.40
2023-02-28T19:02:03.982Z,7.20
2023-02-28T19:04:31.384Z,8.20
2023-02-28T19:06:59.664Z,7.50
2023-02-28T19:09:26.597Z,7.80
2023-02-28T19:11:53.240Z,8.10
2023-02-28T19:14:21.392Z,8.60
2023-02-28T19:16:49.652Z,8.70
2023-02-28T19:19:16.716Z,7.90
2023-02-28T19:21:44.491Z,7.60
2023-02-28T19:24:12.008Z,7.40
2023-02-28T19:26:38.912Z,6.80
2023-02-28T19:29:06.417Z,8.00
2023-02-28T19:31:33.297Z,7.50
2023-02-28T19:34:01.211Z,6.80
2023-02-28T19:36:28.339Z,7.60
2023-02-28T19:38:55.616Z,7.80
2023-02-28T19:41:23.744Z,7.60
2023-02-28T19:43:51.904Z,7.60
2023-02-28T19:46:21.211Z,7.10
2023-02-28T19:48:48.265Z,7.50
2023-02-28T19:53:47.935Z,7.60
2023-02-28T19:56:14.819Z,7.40
2023-02-28T19:58:41.890Z,7.40
2023-02-28T20:01:17.809Z,8.10
2023-02-28T20:03:49.741Z,7.80
2023-02-28T20:06:16.484Z,7.50
2023-02-28T20:08:44.165Z,7.00
2023-02-28T20:11:15.264Z,7.60
2023-02-28T20:13:42.203Z,7.50
2023-02-28T20:16:10.143Z,6.80
2023-02-28T20:18:38.012Z,7.10
2023-02-28T20:21:07.078Z,7.10
2023-02-28T20:23:38.186Z,7.50
2023-02-28T20:26:05.274Z,7.60
2023-02-28T20:28:32.048Z,7.60
2023-02-28T20:31:00.018Z,8.00
2023-02-28T20:33:27.180Z,8.20
2023-02-28T20:36:01.471Z,7.60
2023-02-28T20:38:28.738Z,8.30
2023-02-28T20:41:00.156Z,7.70
2023-02-28T20:43:29.450Z,8.00
2023-02-28T20:45:58.181Z,7.60
2023-02-28T20:48:26.326Z,8.10
2023-02-28T20:50:54.273Z,7.80
2023-02-28T20:53:21.607Z,7.90
2023-02-28T20:55:55.161Z,8.70
2023-02-28T20:58:21.915Z,8.30
2023-02-28T21:00:48.604Z,8.30
2023-02-28T21:03:15.522Z,9.20
2023-02-28T21:05:42.433Z,7.80
2023-02-28T21:08:10.172Z,8.50
2023-02-28T21:10:38.531Z,8.00
2023-02-28T21:13:06.060Z,7.10
2023-02-28T21:15:37.072Z,7.70
2023-02-28T21:18:03.827Z,8.00
2023-02-28T21:20:30.705Z,7.90
2023-02-28T21:22:57.827Z,7.30
2023-02-28T21:25:25.478Z,7.70
2023-02-28T21:27:55.069Z,8.20
2023-02-28T21:30:21.942Z,7.00
2023-02-28T21:32:49.146Z,7.20
2023-02-28T21:35:15.913Z,7.70
2023-02-28T21:37:43.540Z,7.70
2023-02-28T21:40:16.321Z,7.40
2023-02-28T21:42:43.365Z,7.60
2023-02-28T21:45:10.585Z,7.10
2023-02-28T21:47:37.564Z,7.90
2023-02-28T21:50:04.520Z,8.00
2023-02-28T21:52:32.829Z,8.60
2023-02-28T21:54:59.788Z,7.80
2023-02-28T21:57:31.598Z,7.80
2023-02-28T21:59:58.500Z,7.90
2023-02-28T22:02:25.360Z,8.40
2023-02-28T22:04:52.252Z,8.20
2023-02-28T22:07:19.201Z,7.60
2023-02-28T22:09:47.399Z,8.30
2023-02-28T22:12:14.723Z,8.00
2023-02-28T22:14:41.679Z,8.10
2023-02-28T22:17:08.514Z,8.40
2023-02-28T22:19:36.503Z,8.30
2023-02-28T22:22:03.438Z,8.10
2023-02-28T22:24:30.358Z,7.90
2023-02-28T22:26:57.913Z,8.10
2023-02-28T22:29:24.589Z,8.00
2023-02-28T22:31:51.393Z,8.40
2023-02-28T22:34:19.695Z,7.40
2023-02-28T22:36:46.870Z,8.50
2023-02-28T22:39:13.595Z,7.60
2023-02-28T22:41:41.533Z,8.40
2023-02-28T22:44:10.094Z,8.20
2023-02-28T22:46:37.845Z,7.90
2023-02-28T22:49:05.001Z,7.30
2023-02-28T22:51:33.969Z,8.60
2023-02-28T22:54:01.459Z,8.00
2023-02-28T22:56:30.089Z,8.60
2023-02-28T22:58:58.260Z,8.00
2023-02-28T23:01:26.519Z,7.90
2023-02-28T23:03:53.956Z,7.70
2023-02-28T23:06:26.430Z,7.90
2023-02-28T23:08:56.573Z,8.50
2023-02-28T23:11:34.360Z,8.10
2023-02-28T23:14:02.067Z,7.80
2023-02-28T23:16:40.195Z,8.50
2023-02-28T23:19:13.405Z,7.80
2023-02-28T23:21:41.193Z,7.40
2023-02-28T23:24:11.308Z,8.60
2023-02-28T23:26:41.120Z,8.30
2023-02-28T23:29:08.313Z,8.70
2023-02-28T23:31:36.035Z,8.60
2023-02-28T23:34:02.839Z,8.40
2023-02-28T23:36:31.784Z,7.90
2023-02-28T23:38:59.289Z,8.50
2023-02-28T23:41:25.984Z,8.00
2023-02-28T23:43:52.804Z,7.90
2023-02-28T23:46:19.569Z,8.10
2023-02-28T23:48:46.335Z,7.40
2023-02-28T23:51:18.615Z,7.90
2023-02-28T23:53:48.246Z,7.60
2023-02-28T23:56:17.863Z,8.00
2023-02-28T23:58:47.540Z,8.10
